sensor_id;sensor_type;location;lat;lon;timestamp;P1;durP1;ratioP1;P2;durP2;ratioP2
49029;SDS011;43337;52.070;4.508;2022-11-15T00:00:14;94.22;;;27.40;;
49029;SDS011;43337;52.070;4.508;2022-11-15T00:02:40;93.03;;;26.50;;
49029;SDS011;43337;52.070;4.508;2022-11-15T00:05:05;90.93;;;27.08;;
49029;SDS011;43337;52.070;4.508;2022-11-15T00:07:31;87.25;;;27.98;;
49029;SDS011;43337;52.070;4.508;2022-11-15T00:09:56;103.20;;;28.13;;
49029;SDS011;43337;52.070;4.508;2022-11-15T00:12:22;98.82;;;28.63;;
49029;SDS011;43337;52.070;4.508;2022-11-15T00:14:47;87.93;;;28.02;;
49029;SDS011;43337;52.070;4.508;2022-11-15T00:17:12;102.03;;;31.25;;
49029;SDS011;43337;52.070;4.508;2022-11-15T00:19:38;86.93;;;27.88;;
49029;SDS011;43337;52.070;4.508;2022-11-15T00:22:04;91.47;;;28.55;;
49029;SDS011;43337;52.070;4.508;2022-11-15T00:24:48;97.30;;;27.58;;
49029;SDS011;43337;52.070;4.508;2022-11-15T00:27:21;99.07;;;30.63;;
49029;SDS011;43337;52.070;4.508;2022-11-15T00:29:47;99.35;;;30.00;;
49029;SDS011;43337;52.070;4.508;2022-11-15T00:32:12;99.85;;;29.80;;
49029;SDS011;43337;52.070;4.508;2022-11-15T00:34:37;100.95;;;29.00;;
49029;SDS011;43337;52.070;4.508;2022-11-15T00:37:03;93.13;;;26.58;;
49029;SDS011;43337;52.070;4.508;2022-11-15T00:39:28;85.97;;;27.15;;
49029;SDS011;43337;52.070;4.508;2022-11-15T00:41:54;82.60;;;27.08;;
49029;SDS011;43337;52.070;4.508;2022-11-15T00:44:19;108.47;;;28.88;;
49029;SDS011;43337;52.070;4.508;2022-11-15T00:46:44;108.35;;;27.98;;
49029;SDS011;43337;52.070;4.508;2022-11-15T00:49:10;97.15;;;26.85;;
49029;SDS011;43337;52.070;4.508;2022-11-15T00:51:36;105.43;;;27.77;;
49029;SDS011;43337;52.070;4.508;2022-11-15T00:54:01;111.80;;;29.23;;
49029;SDS011;43337;52.070;4.508;2022-11-15T00:56:26;97.22;;;27.10;;
49029;SDS011;43337;52.070;4.508;2022-11-15T00:58:52;110.32;;;30.13;;
49029;SDS011;43337;52.070;4.508;2022-11-15T01:01:18;103.47;;;28.88;;
49029;SDS011;43337;52.070;4.508;2022-11-15T01:03:43;124.85;;;30.48;;
49029;SDS011;43337;52.070;4.508;2022-11-15T01:06:09;114.82;;;30.42;;
49029;SDS011;43337;52.070;4.508;2022-11-15T01:08:34;108.53;;;30.70;;
49029;SDS011;43337;52.070;4.508;2022-11-15T01:11:04;115.70;;;32.05;;
49029;SDS011;43337;52.070;4.508;2022-11-15T01:13:31;147.40;;;30.35;;
49029;SDS011;43337;52.070;4.508;2022-11-15T01:15:58;119.90;;;31.15;;
49029;SDS011;43337;52.070;4.508;2022-11-15T01:18:24;125.80;;;31.95;;
49029;SDS011;43337;52.070;4.508;2022-11-15T01:20:50;115.68;;;28.20;;
49029;SDS011;43337;52.070;4.508;2022-11-15T01:23:15;120.05;;;29.90;;
49029;SDS011;43337;52.070;4.508;2022-11-15T01:25:41;132.80;;;30.58;;
49029;SDS011;43337;52.070;4.508;2022-11-15T01:28:06;144.77;;;31.00;;
49029;SDS011;43337;52.070;4.508;2022-11-15T01:30:31;108.93;;;30.98;;
49029;SDS011;43337;52.070;4.508;2022-11-15T01:32:57;111.47;;;29.50;;
49029;SDS011;43337;52.070;4.508;2022-11-15T01:35:22;137.98;;;30.27;;
49029;SDS011;43337;52.070;4.508;2022-11-15T01:37:48;134.95;;;31.75;;
49029;SDS011;43337;52.070;4.508;2022-11-15T01:40:13;141.15;;;32.63;;
49029;SDS011;43337;52.070;4.508;2022-11-15T01:42:39;124.90;;;33.03;;
49029;SDS011;43337;52.070;4.508;2022-11-15T01:45:04;131.63;;;30.90;;
49029;SDS011;43337;52.070;4.508;2022-11-15T01:47:31;119.93;;;30.83;;
49029;SDS011;43337;52.070;4.508;2022-11-15T01:50:05;117.88;;;32.70;;
49029;SDS011;43337;52.070;4.508;2022-11-15T01:52:35;142.65;;;33.50;;
49029;SDS011;43337;52.070;4.508;2022-11-15T01:55:19;165.50;;;35.55;;
49029;SDS011;43337;52.070;4.508;2022-11-15T01:57:48;152.05;;;33.10;;
49029;SDS011;43337;52.070;4.508;2022-11-15T02:00:18;146.25;;;33.95;;
49029;SDS011;43337;52.070;4.508;2022-11-15T02:02:43;159.45;;;35.92;;
49029;SDS011;43337;52.070;4.508;2022-11-15T02:05:09;152.13;;;35.63;;
49029;SDS011;43337;52.070;4.508;2022-11-15T02:07:34;135.95;;;32.65;;
49029;SDS011;43337;52.070;4.508;2022-11-15T02:10:16;136.43;;;34.13;;
49029;SDS011;43337;52.070;4.508;2022-11-15T02:12:44;131.95;;;33.20;;
49029;SDS011;43337;52.070;4.508;2022-11-15T02:15:10;152.82;;;34.65;;
49029;SDS011;43337;52.070;4.508;2022-11-15T02:23:17;159.88;;;35.72;;
49029;SDS011;43337;52.070;4.508;2022-11-15T02:26:11;153.85;;;33.50;;
49029;SDS011;43337;52.070;4.508;2022-11-15T02:36:42;141.00;;;35.80;;
49029;SDS011;43337;52.070;4.508;2022-11-15T02:42:17;152.93;;;35.47;;
49029;SDS011;43337;52.070;4.508;2022-11-15T02:45:07;147.88;;;34.63;;
49029;SDS011;43337;52.070;4.508;2022-11-15T02:47:37;147.57;;;37.33;;
49029;SDS011;43337;52.070;4.508;2022-11-15T02:50:09;143.43;;;34.17;;
49029;SDS011;43337;52.070;4.508;2022-11-15T02:52:37;156.02;;;34.30;;
49029;SDS011;43337;52.070;4.508;2022-11-15T02:55:02;146.85;;;34.95;;
49029;SDS011;43337;52.070;4.508;2022-11-15T02:57:45;170.80;;;35.42;;
49029;SDS011;43337;52.070;4.508;2022-11-15T03:00:18;163.35;;;35.17;;
49029;SDS011;43337;52.070;4.508;2022-11-15T03:05:35;163.32;;;35.10;;
49029;SDS011;43337;52.070;4.508;2022-11-15T03:11:07;151.63;;;34.13;;
49029;SDS011;43337;52.070;4.508;2022-11-15T03:13:38;171.27;;;37.47;;
49029;SDS011;43337;52.070;4.508;2022-11-15T03:19:16;150.85;;;34.22;;
49029;SDS011;43337;52.070;4.508;2022-11-15T03:21:51;149.98;;;34.70;;
49029;SDS011;43337;52.070;4.508;2022-11-15T03:24:20;149.40;;;34.13;;
49029;SDS011;43337;52.070;4.508;2022-11-15T03:26:47;154.23;;;35.10;;
49029;SDS011;43337;52.070;4.508;2022-11-15T03:29:16;155.30;;;34.83;;
49029;SDS011;43337;52.070;4.508;2022-11-15T03:31:46;144.50;;;34.65;;
49029;SDS011;43337;52.070;4.508;2022-11-15T03:34:29;131.68;;;33.08;;
49029;SDS011;43337;52.070;4.508;2022-11-15T03:37:00;126.30;;;32.30;;
49029;SDS011;43337;52.070;4.508;2022-11-15T03:39:25;133.95;;;33.75;;
49029;SDS011;43337;52.070;4.508;2022-11-15T03:44:51;121.78;;;33.00;;
49029;SDS011;43337;52.070;4.508;2022-11-15T03:47:29;121.60;;;32.95;;
49029;SDS011;43337;52.070;4.508;2022-11-15T03:49:59;104.00;;;32.53;;
49029;SDS011;43337;52.070;4.508;2022-11-15T03:52:31;110.68;;;29.95;;
49029;SDS011;43337;52.070;4.508;2022-11-15T03:54:58;107.05;;;30.58;;
49029;SDS011;43337;52.070;4.508;2022-11-15T03:57:26;102.35;;;30.30;;
49029;SDS011;43337;52.070;4.508;2022-11-15T03:59:51;107.20;;;30.00;;
49029;SDS011;43337;52.070;4.508;2022-11-15T04:02:17;94.05;;;30.80;;
49029;SDS011;43337;52.070;4.508;2022-11-15T04:04:42;104.50;;;29.90;;
49029;SDS011;43337;52.070;4.508;2022-11-15T04:07:07;90.43;;;28.90;;
49029;SDS011;43337;52.070;4.508;2022-11-15T04:09:33;104.25;;;28.88;;
49029;SDS011;43337;52.070;4.508;2022-11-15T04:11:58;95.90;;;29.10;;
49029;SDS011;43337;52.070;4.508;2022-11-15T04:14:23;94.63;;;28.27;;
49029;SDS011;43337;52.070;4.508;2022-11-15T04:16:49;87.00;;;27.65;;
49029;SDS011;43337;52.070;4.508;2022-11-15T04:19:14;94.80;;;28.27;;
49029;SDS011;43337;52.070;4.508;2022-11-15T04:21:58;86.35;;;27.00;;
49029;SDS011;43337;52.070;4.508;2022-11-15T04:24:42;71.65;;;25.40;;
49029;SDS011;43337;52.070;4.508;2022-11-15T04:27:07;76.35;;;24.10;;
49029;SDS011;43337;52.070;4.508;2022-11-15T04:29:33;73.32;;;23.92;;
49029;SDS011;43337;52.070;4.508;2022-11-15T04:32:02;66.35;;;22.73;;
49029;SDS011;43337;52.070;4.508;2022-11-15T04:34:28;62.85;;;21.95;;
49029;SDS011;43337;52.070;4.508;2022-11-15T04:36:53;69.10;;;22.83;;
49029;SDS011;43337;52.070;4.508;2022-11-15T04:39:37;64.47;;;20.15;;
49029;SDS011;43337;52.070;4.508;2022-11-15T04:42:02;55.33;;;17.92;;
49029;SDS011;43337;52.070;4.508;2022-11-15T04:44:28;50.03;;;18.15;;
49029;SDS011;43337;52.070;4.508;2022-11-15T04:46:53;48.47;;;17.98;;
49029;SDS011;43337;52.070;4.508;2022-11-15T04:49:19;43.97;;;17.00;;
49029;SDS011;43337;52.070;4.508;2022-11-15T04:51:44;51.28;;;18.77;;
49029;SDS011;43337;52.070;4.508;2022-11-15T04:54:09;44.20;;;17.17;;
49029;SDS011;43337;52.070;4.508;2022-11-15T04:56:35;44.35;;;16.33;;
49029;SDS011;43337;52.070;4.508;2022-11-15T04:59:00;45.85;;;15.85;;
49029;SDS011;43337;52.070;4.508;2022-11-15T05:01:25;39.60;;;16.48;;
49029;SDS011;43337;52.070;4.508;2022-11-15T05:03:51;43.95;;;15.82;;
49029;SDS011;43337;52.070;4.508;2022-11-15T05:06:35;37.17;;;14.50;;
49029;SDS011;43337;52.070;4.508;2022-11-15T05:09:00;34.78;;;13.65;;
49029;SDS011;43337;52.070;4.508;2022-11-15T05:11:26;38.55;;;14.88;;
49029;SDS011;43337;52.070;4.508;2022-11-15T05:13:52;37.65;;;14.93;;
49029;SDS011;43337;52.070;4.508;2022-11-15T05:16:18;34.78;;;15.10;;
49029;SDS011;43337;52.070;4.508;2022-11-15T05:18:43;36.35;;;15.23;;
49029;SDS011;43337;52.070;4.508;2022-11-15T05:21:09;41.00;;;15.55;;
49029;SDS011;43337;52.070;4.508;2022-11-15T05:23:36;37.15;;;15.45;;
49029;SDS011;43337;52.070;4.508;2022-11-15T05:26:03;37.20;;;14.93;;
49029;SDS011;43337;52.070;4.508;2022-11-15T05:28:29;38.75;;;14.55;;
49029;SDS011;43337;52.070;4.508;2022-11-15T05:31:02;33.35;;;13.68;;
49029;SDS011;43337;52.070;4.508;2022-11-15T05:33:29;31.50;;;12.95;;
49029;SDS011;43337;52.070;4.508;2022-11-15T05:35:57;34.92;;;13.38;;
49029;SDS011;43337;52.070;4.508;2022-11-15T05:38:27;32.95;;;14.05;;
49029;SDS011;43337;52.070;4.508;2022-11-15T05:40:53;32.63;;;12.50;;
49029;SDS011;43337;52.070;4.508;2022-11-15T05:43:19;31.17;;;12.45;;
49029;SDS011;43337;52.070;4.508;2022-11-15T05:45:45;32.88;;;13.02;;
49029;SDS011;43337;52.070;4.508;2022-11-15T05:48:10;40.50;;;13.00;;
49029;SDS011;43337;52.070;4.508;2022-11-15T05:50:37;29.13;;;12.43;;
49029;SDS011;43337;52.070;4.508;2022-11-15T05:53:06;33.55;;;12.00;;
49029;SDS011;43337;52.070;4.508;2022-11-15T05:55:32;36.00;;;12.25;;
49029;SDS011;43337;52.070;4.508;2022-11-15T05:57:59;32.08;;;12.25;;
49029;SDS011;43337;52.070;4.508;2022-11-15T06:00:25;26.10;;;12.70;;
49029;SDS011;43337;52.070;4.508;2022-11-15T06:02:50;28.52;;;12.05;;
49029;SDS011;43337;52.070;4.508;2022-11-15T06:05:16;34.10;;;12.85;;
49029;SDS011;43337;52.070;4.508;2022-11-15T06:07:41;25.65;;;12.38;;
49029;SDS011;43337;52.070;4.508;2022-11-15T06:10:07;26.33;;;11.88;;
49029;SDS011;43337;52.070;4.508;2022-11-15T06:12:33;29.52;;;12.27;;
49029;SDS011;43337;52.070;4.508;2022-11-15T06:14:58;33.17;;;11.38;;
49029;SDS011;43337;52.070;4.508;2022-11-15T06:17:24;28.83;;;10.82;;
49029;SDS011;43337;52.070;4.508;2022-11-15T06:19:49;25.33;;;9.75;;
49029;SDS011;43337;52.070;4.508;2022-11-15T06:22:14;35.20;;;10.77;;
49029;SDS011;43337;52.070;4.508;2022-11-15T06:24:40;26.88;;;10.98;;
49029;SDS011;43337;52.070;4.508;2022-11-15T06:27:05;21.02;;;9.20;;
49029;SDS011;43337;52.070;4.508;2022-11-15T06:29:30;26.30;;;10.23;;
49029;SDS011;43337;52.070;4.508;2022-11-15T06:31:55;22.08;;;8.68;;
49029;SDS011;43337;52.070;4.508;2022-11-15T06:34:21;19.70;;;7.88;;
49029;SDS011;43337;52.070;4.508;2022-11-15T06:36:46;21.17;;;7.93;;
49029;SDS011;43337;52.070;4.508;2022-11-15T06:39:11;17.00;;;7.50;;
49029;SDS011;43337;52.070;4.508;2022-11-15T06:41:37;18.00;;;7.45;;
49029;SDS011;43337;52.070;4.508;2022-11-15T06:44:02;17.63;;;7.28;;
49029;SDS011;43337;52.070;4.508;2022-11-15T06:46:28;17.83;;;6.82;;
49029;SDS011;43337;52.070;4.508;2022-11-15T06:48:53;17.98;;;7.40;;
49029;SDS011;43337;52.070;4.508;2022-11-15T06:51:19;19.55;;;7.38;;
49029;SDS011;43337;52.070;4.508;2022-11-15T06:53:45;14.77;;;6.20;;
49029;SDS011;43337;52.070;4.508;2022-11-15T06:56:10;17.17;;;6.32;;
49029;SDS011;43337;52.070;4.508;2022-11-15T06:58:36;19.17;;;6.38;;
49029;SDS011;43337;52.070;4.508;2022-11-15T07:01:02;17.75;;;5.63;;
49029;SDS011;43337;52.070;4.508;2022-11-15T07:03:36;15.98;;;5.63;;
49029;SDS011;43337;52.070;4.508;2022-11-15T07:06:06;17.08;;;5.95;;
49029;SDS011;43337;52.070;4.508;2022-11-15T07:08:32;15.40;;;5.90;;
49029;SDS011;43337;52.070;4.508;2022-11-15T07:10:59;16.77;;;6.75;;
49029;SDS011;43337;52.070;4.508;2022-11-15T07:13:27;14.60;;;5.68;;
49029;SDS011;43337;52.070;4.508;2022-11-15T07:15:53;13.98;;;6.03;;
49029;SDS011;43337;52.070;4.508;2022-11-15T07:18:19;13.20;;;5.50;;
49029;SDS011;43337;52.070;4.508;2022-11-15T07:20:45;16.02;;;5.80;;
49029;SDS011;43337;52.070;4.508;2022-11-15T07:23:10;17.63;;;5.50;;
49029;SDS011;43337;52.070;4.508;2022-11-15T07:25:36;17.55;;;6.53;;
49029;SDS011;43337;52.070;4.508;2022-11-15T07:28:01;19.15;;;6.97;;
49029;SDS011;43337;52.070;4.508;2022-11-15T07:30:28;16.70;;;5.60;;
49029;SDS011;43337;52.070;4.508;2022-11-15T07:35:23;18.77;;;5.03;;
49029;SDS011;43337;52.070;4.508;2022-11-15T07:38:02;17.98;;;5.35;;
49029;SDS011;43337;52.070;4.508;2022-11-15T07:40:29;15.93;;;5.45;;
49029;SDS011;43337;52.070;4.508;2022-11-15T07:43:03;23.20;;;5.28;;
49029;SDS011;43337;52.070;4.508;2022-11-15T07:45:30;11.05;;;5.03;;
49029;SDS011;43337;52.070;4.508;2022-11-15T07:47:58;15.25;;;4.63;;
49029;SDS011;43337;52.070;4.508;2022-11-15T07:50:24;13.77;;;4.43;;
49029;SDS011;43337;52.070;4.508;2022-11-15T07:52:56;16.60;;;4.22;;
49029;SDS011;43337;52.070;4.508;2022-11-15T07:55:24;13.35;;;4.53;;
49029;SDS011;43337;52.070;4.508;2022-11-15T07:57:52;15.55;;;4.53;;
49029;SDS011;43337;52.070;4.508;2022-11-15T08:00:17;11.60;;;3.72;;
49029;SDS011;43337;52.070;4.508;2022-11-15T08:02:43;13.23;;;4.68;;
49029;SDS011;43337;52.070;4.508;2022-11-15T08:05:08;9.05;;;4.03;;
49029;SDS011;43337;52.070;4.508;2022-11-15T08:07:33;10.18;;;4.55;;
49029;SDS011;43337;52.070;4.508;2022-11-15T08:09:59;15.48;;;4.50;;
49029;SDS011;43337;52.070;4.508;2022-11-15T08:12:28;11.40;;;6.03;;
49029;SDS011;43337;52.070;4.508;2022-11-15T08:14:54;9.75;;;4.82;;
49029;SDS011;43337;52.070;4.508;2022-11-15T08:17:21;15.38;;;4.80;;
49029;SDS011;43337;52.070;4.508;2022-11-15T08:19:48;9.95;;;4.80;;
49029;SDS011;43337;52.070;4.508;2022-11-15T08:22:13;16.83;;;4.53;;
49029;SDS011;43337;52.070;4.508;2022-11-15T08:24:38;12.60;;;4.75;;
49029;SDS011;43337;52.070;4.508;2022-11-15T08:27:04;14.82;;;4.22;;
49029;SDS011;43337;52.070;4.508;2022-11-15T08:29:29;15.77;;;4.88;;
49029;SDS011;43337;52.070;4.508;2022-11-15T08:31:55;14.32;;;4.57;;
49029;SDS011;43337;52.070;4.508;2022-11-15T08:34:21;15.48;;;4.30;;
49029;SDS011;43337;52.070;4.508;2022-11-15T08:36:46;12.93;;;5.00;;
49029;SDS011;43337;52.070;4.508;2022-11-15T08:39:11;12.45;;;5.45;;
49029;SDS011;43337;52.070;4.508;2022-11-15T08:41:39;12.82;;;5.60;;
49029;SDS011;43337;52.070;4.508;2022-11-15T08:44:05;12.73;;;5.55;;
49029;SDS011;43337;52.070;4.508;2022-11-15T08:46:30;14.77;;;6.45;;
49029;SDS011;43337;52.070;4.508;2022-11-15T08:48:55;14.13;;;6.00;;
49029;SDS011;43337;52.070;4.508;2022-11-15T08:51:21;14.77;;;6.10;;
49029;SDS011;43337;52.070;4.508;2022-11-15T08:53:46;10.35;;;5.60;;
49029;SDS011;43337;52.070;4.508;2022-11-15T08:56:13;13.63;;;5.90;;
49029;SDS011;43337;52.070;4.508;2022-11-15T08:58:39;14.23;;;5.78;;
49029;SDS011;43337;52.070;4.508;2022-11-15T09:01:05;11.55;;;5.25;;
49029;SDS011;43337;52.070;4.508;2022-11-15T09:03:31;14.15;;;6.05;;
49029;SDS011;43337;52.070;4.508;2022-11-15T09:05:57;12.60;;;6.03;;
49029;SDS011;43337;52.070;4.508;2022-11-15T09:08:25;17.13;;;5.72;;
49029;SDS011;43337;52.070;4.508;2022-11-15T09:10:54;12.80;;;5.38;;
49029;SDS011;43337;52.070;4.508;2022-11-15T09:13:19;10.48;;;4.82;;
49029;SDS011;43337;52.070;4.508;2022-11-15T09:15:45;11.50;;;5.18;;
49029;SDS011;43337;52.070;4.508;2022-11-15T09:18:10;10.07;;;4.53;;
49029;SDS011;43337;52.070;4.508;2022-11-15T09:20:36;10.18;;;5.00;;
49029;SDS011;43337;52.070;4.508;2022-11-15T09:23:01;10.05;;;5.15;;
49029;SDS011;43337;52.070;4.508;2022-11-15T09:25:28;14.20;;;5.07;;
49029;SDS011;43337;52.070;4.508;2022-11-15T09:27:54;12.13;;;4.65;;
49029;SDS011;43337;52.070;4.508;2022-11-15T09:30:20;9.93;;;4.53;;
49029;SDS011;43337;52.070;4.508;2022-11-15T09:32:45;9.70;;;4.13;;
49029;SDS011;43337;52.070;4.508;2022-11-15T09:35:11;14.05;;;4.70;;
49029;SDS011;43337;52.070;4.508;2022-11-15T09:37:36;11.10;;;4.45;;
49029;SDS011;43337;52.070;4.508;2022-11-15T09:40:02;9.55;;;3.88;;
49029;SDS011;43337;52.070;4.508;2022-11-15T09:42:35;11.00;;;4.10;;
49029;SDS011;43337;52.070;4.508;2022-11-15T09:45:22;11.30;;;3.85;;
49029;SDS011;43337;52.070;4.508;2022-11-15T09:48:16;8.38;;;4.15;;
49029;SDS011;43337;52.070;4.508;2022-11-15T09:51:08;11.68;;;4.00;;
49029;SDS011;43337;52.070;4.508;2022-11-15T09:56:20;9.10;;;3.65;;
49029;SDS011;43337;52.070;4.508;2022-11-15T10:01:30;9.52;;;3.40;;
49029;SDS011;43337;52.070;4.508;2022-11-15T10:04:04;8.23;;;3.60;;
49029;SDS011;43337;52.070;4.508;2022-11-15T10:06:29;12.15;;;3.30;;
49029;SDS011;43337;52.070;4.508;2022-11-15T10:09:09;8.77;;;3.50;;
49029;SDS011;43337;52.070;4.508;2022-11-15T10:11:40;6.35;;;2.85;;
49029;SDS011;43337;52.070;4.508;2022-11-15T10:14:16;6.57;;;3.10;;
49029;SDS011;43337;52.070;4.508;2022-11-15T10:16:59;14.88;;;3.97;;
49029;SDS011;43337;52.070;4.508;2022-11-15T10:22:38;8.65;;;2.75;;
49029;SDS011;43337;52.070;4.508;2022-11-15T10:27:35;8.75;;;2.85;;
49029;SDS011;43337;52.070;4.508;2022-11-15T10:30:01;9.50;;;2.90;;
49029;SDS011;43337;52.070;4.508;2022-11-15T10:32:35;9.90;;;3.13;;
49029;SDS011;43337;52.070;4.508;2022-11-15T10:35:01;6.90;;;2.80;;
49029;SDS011;43337;52.070;4.508;2022-11-15T10:37:42;7.80;;;3.40;;
49029;SDS011;43337;52.070;4.508;2022-11-15T10:40:20;9.60;;;2.60;;
49029;SDS011;43337;52.070;4.508;2022-11-15T10:42:48;7.97;;;2.55;;
49029;SDS011;43337;52.070;4.508;2022-11-15T10:45:31;8.75;;;2.60;;
49029;SDS011;43337;52.070;4.508;2022-11-15T10:50:39;11.15;;;2.53;;
49029;SDS011;43337;52.070;4.508;2022-11-15T10:53:24;5.65;;;2.33;;
49029;SDS011;43337;52.070;4.508;2022-11-15T10:55:55;6.30;;;2.00;;
49029;SDS011;43337;52.070;4.508;2022-11-15T11:01:16;8.20;;;2.53;;
49029;SDS011;43337;52.070;4.508;2022-11-15T11:03:58;5.65;;;2.47;;
49029;SDS011;43337;52.070;4.508;2022-11-15T11:06:25;8.15;;;2.25;;
49029;SDS011;43337;52.070;4.508;2022-11-15T11:08:55;6.55;;;2.15;;
49029;SDS011;43337;52.070;4.508;2022-11-15T11:14:20;8.90;;;2.42;;
49029;SDS011;43337;52.070;4.508;2022-11-15T11:17:00;8.23;;;1.90;;
49029;SDS011;43337;52.070;4.508;2022-11-15T11:19:46;8.65;;;1.92;;
49029;SDS011;43337;52.070;4.508;2022-11-15T11:30:40;7.53;;;1.98;;
49029;SDS011;43337;52.070;4.508;2022-11-15T11:33:04;6.15;;;1.80;;
49029;SDS011;43337;52.070;4.508;2022-11-15T11:46:43;4.72;;;1.15;;
49029;SDS011;43337;52.070;4.508;2022-11-15T11:49:37;8.65;;;1.50;;
49029;SDS011;43337;52.070;4.508;2022-11-15T11:54:38;4.50;;;1.40;;
49029;SDS011;43337;52.070;4.508;2022-11-15T11:57:05;6.55;;;1.52;;
49029;SDS011;43337;52.070;4.508;2022-11-15T11:59:48;8.05;;;1.55;;
49029;SDS011;43337;52.070;4.508;2022-11-15T12:02:21;10.23;;;1.70;;
49029;SDS011;43337;52.070;4.508;2022-11-15T12:04:56;7.25;;;1.60;;
49029;SDS011;43337;52.070;4.508;2022-11-15T12:07:29;4.93;;;1.13;;
49029;SDS011;43337;52.070;4.508;2022-11-15T12:09:59;11.15;;;1.70;;
49029;SDS011;43337;52.070;4.508;2022-11-15T12:12:41;8.45;;;1.23;;
49029;SDS011;43337;52.070;4.508;2022-11-15T12:17:33;5.95;;;1.75;;
49029;SDS011;43337;52.070;4.508;2022-11-15T12:19:59;4.28;;;1.33;;
49029;SDS011;43337;52.070;4.508;2022-11-15T12:27:34;5.25;;;1.30;;
49029;SDS011;43337;52.070;4.508;2022-11-15T12:30:25;6.30;;;1.10;;
49029;SDS011;43337;52.070;4.508;2022-11-15T12:32:57;7.25;;;0.85;;
49029;SDS011;43337;52.070;4.508;2022-11-15T12:37:51;8.93;;;1.40;;
49029;SDS011;43337;52.070;4.508;2022-11-15T12:42:57;7.80;;;1.30;;
49029;SDS011;43337;52.070;4.508;2022-11-15T13:01:52;6.78;;;1.20;;
49029;SDS011;43337;52.070;4.508;2022-11-15T13:06:59;4.15;;;0.90;;
49029;SDS011;43337;52.070;4.508;2022-11-15T13:11:53;5.72;;;1.08;;
49029;SDS011;43337;52.070;4.508;2022-11-15T13:20:28;8.75;;;1.10;;
49029;SDS011;43337;52.070;4.508;2022-11-15T13:22:39;4.20;;;1.00;;
49029;SDS011;43337;52.070;4.508;2022-11-15T13:27:59;3.40;;;0.75;;
49029;SDS011;43337;52.070;4.508;2022-11-15T13:30:27;3.65;;;1.05;;
49029;SDS011;43337;52.070;4.508;2022-11-15T13:32:55;7.03;;;1.77;;
49029;SDS011;43337;52.070;4.508;2022-11-15T13:35:24;4.35;;;1.45;;
49029;SDS011;43337;52.070;4.508;2022-11-15T13:37:51;6.50;;;1.38;;
49029;SDS011;43337;52.070;4.508;2022-11-15T13:40:26;8.35;;;1.00;;
49029;SDS011;43337;52.070;4.508;2022-11-15T13:42:55;5.60;;;0.80;;
49029;SDS011;43337;52.070;4.508;2022-11-15T13:45:21;7.75;;;1.48;;
49029;SDS011;43337;52.070;4.508;2022-11-15T13:47:56;12.20;;;2.38;;
49029;SDS011;43337;52.070;4.508;2022-11-15T13:50:28;5.78;;;0.90;;
49029;SDS011;43337;52.070;4.508;2022-11-15T13:53:00;6.10;;;1.13;;
49029;SDS011;43337;52.070;4.508;2022-11-15T13:55:28;8.30;;;1.20;;
49029;SDS011;43337;52.070;4.508;2022-11-15T13:57:58;5.25;;;1.33;;
49029;SDS011;43337;52.070;4.508;2022-11-15T14:00:37;7.60;;;1.20;;
49029;SDS011;43337;52.070;4.508;2022-11-15T14:03:06;4.13;;;0.85;;
49029;SDS011;43337;52.070;4.508;2022-11-15T14:05:41;8.65;;;1.10;;
49029;SDS011;43337;52.070;4.508;2022-11-15T14:10:48;6.13;;;0.93;;
49029;SDS011;43337;52.070;4.508;2022-11-15T14:16:35;5.65;;;1.15;;
49029;SDS011;43337;52.070;4.508;2022-11-15T14:19:03;9.40;;;0.90;;
49029;SDS011;43337;52.070;4.508;2022-11-15T14:21:30;4.78;;;1.05;;
49029;SDS011;43337;52.070;4.508;2022-11-15T14:24:18;5.20;;;1.10;;
49029;SDS011;43337;52.070;4.508;2022-11-15T14:26:45;3.42;;;0.77;;
49029;SDS011;43337;52.070;4.508;2022-11-15T14:29:24;4.60;;;0.90;;
49029;SDS011;43337;52.070;4.508;2022-11-15T14:31:51;7.30;;;1.23;;
49029;SDS011;43337;52.070;4.508;2022-11-15T14:34:17;5.43;;;1.27;;
49029;SDS011;43337;52.070;4.508;2022-11-15T14:36:43;4.05;;;0.85;;
49029;SDS011;43337;52.070;4.508;2022-11-15T14:39:09;4.05;;;0.75;;
49029;SDS011;43337;52.070;4.508;2022-11-15T14:41:35;6.97;;;1.10;;
49029;SDS011;43337;52.070;4.508;2022-11-15T14:44:04;6.43;;;1.05;;
49029;SDS011;43337;52.070;4.508;2022-11-15T14:46:30;4.53;;;0.98;;
49029;SDS011;43337;52.070;4.508;2022-11-15T14:48:56;6.68;;;1.10;;
49029;SDS011;43337;52.070;4.508;2022-11-15T14:51:21;5.07;;;0.90;;
49029;SDS011;43337;52.070;4.508;2022-11-15T14:53:47;5.85;;;1.40;;
49029;SDS011;43337;52.070;4.508;2022-11-15T14:56:12;5.40;;;0.82;;
49029;SDS011;43337;52.070;4.508;2022-11-15T14:58:38;6.25;;;0.85;;
49029;SDS011;43337;52.070;4.508;2022-11-15T15:01:20;5.45;;;0.88;;
49029;SDS011;43337;52.070;4.508;2022-11-15T15:03:48;4.23;;;1.53;;
49029;SDS011;43337;52.070;4.508;2022-11-15T15:06:13;2.95;;;1.15;;
49029;SDS011;43337;52.070;4.508;2022-11-15T15:08:39;3.88;;;1.13;;
49029;SDS011;43337;52.070;4.508;2022-11-15T15:11:14;3.90;;;1.05;;
49029;SDS011;43337;52.070;4.508;2022-11-15T15:13:45;2.53;;;0.93;;
49029;SDS011;43337;52.070;4.508;2022-11-15T15:16:10;4.72;;;1.08;;
49029;SDS011;43337;52.070;4.508;2022-11-15T15:18:35;3.22;;;0.82;;
49029;SDS011;43337;52.070;4.508;2022-11-15T15:21:01;9.80;;;1.50;;
49029;SDS011;43337;52.070;4.508;2022-11-15T15:23:32;6.28;;;0.98;;
49029;SDS011;43337;52.070;4.508;2022-11-15T15:25:58;4.15;;;1.00;;
49029;SDS011;43337;52.070;4.508;2022-11-15T15:28:24;7.75;;;1.00;;
49029;SDS011;43337;52.070;4.508;2022-11-15T15:30:49;6.35;;;1.20;;
49029;SDS011;43337;52.070;4.508;2022-11-15T15:33:15;4.13;;;1.05;;
49029;SDS011;43337;52.070;4.508;2022-11-15T15:35:41;3.97;;;0.82;;
49029;SDS011;43337;52.070;4.508;2022-11-15T15:38:08;3.00;;;0.95;;
49029;SDS011;43337;52.070;4.508;2022-11-15T15:40:36;7.00;;;1.27;;
49029;SDS011;43337;52.070;4.508;2022-11-15T15:43:02;4.60;;;0.90;;
49029;SDS011;43337;52.070;4.508;2022-11-15T15:45:27;4.10;;;0.88;;
49029;SDS011;43337;52.070;4.508;2022-11-15T15:47:54;2.70;;;1.00;;
49029;SDS011;43337;52.070;4.508;2022-11-15T15:50:27;5.45;;;1.48;;
49029;SDS011;43337;52.070;4.508;2022-11-15T15:52:55;5.88;;;1.23;;
49029;SDS011;43337;52.070;4.508;2022-11-15T15:55:22;3.97;;;1.23;;
49029;SDS011;43337;52.070;4.508;2022-11-15T15:57:48;7.53;;;1.88;;
49029;SDS011;43337;52.070;4.508;2022-11-15T16:00:13;6.18;;;1.48;;
49029;SDS011;43337;52.070;4.508;2022-11-15T16:02:39;3.65;;;1.00;;
49029;SDS011;43337;52.070;4.508;2022-11-15T16:05:07;5.93;;;1.45;;
49029;SDS011;43337;52.070;4.508;2022-11-15T16:07:33;4.88;;;1.10;;
49029;SDS011;43337;52.070;4.508;2022-11-15T16:09:59;7.65;;;1.42;;
49029;SDS011;43337;52.070;4.508;2022-11-15T16:12:27;4.25;;;1.23;;
49029;SDS011;43337;52.070;4.508;2022-11-15T16:14:53;8.15;;;1.23;;
49029;SDS011;43337;52.070;4.508;2022-11-15T16:17:19;3.53;;;1.23;;
49029;SDS011;43337;52.070;4.508;2022-11-15T16:19:46;6.78;;;1.33;;
49029;SDS011;43337;52.070;4.508;2022-11-15T16:22:12;4.03;;;1.10;;
49029;SDS011;43337;52.070;4.508;2022-11-15T16:24:37;4.13;;;1.27;;
49029;SDS011;43337;52.070;4.508;2022-11-15T16:27:03;4.78;;;1.50;;
49029;SDS011;43337;52.070;4.508;2022-11-15T16:29:28;5.30;;;2.30;;
49029;SDS011;43337;52.070;4.508;2022-11-15T16:31:54;8.25;;;2.08;;
49029;SDS011;43337;52.070;4.508;2022-11-15T16:34:20;7.05;;;1.88;;
49029;SDS011;43337;52.070;4.508;2022-11-15T16:36:46;4.82;;;1.70;;
49029;SDS011;43337;52.070;4.508;2022-11-15T16:39:11;3.83;;;1.35;;